createdAt,value
2018-01-06T00:01:21.027Z,99800.27
2018-01-06T00:03:48.670Z,99785.80
2018-01-06T00:06:16.247Z,99784.13
2018-01-06T00:08:43.824Z,99788.02
2018-01-06T00:11:11.454Z,99788.46
2018-01-06T00:13:39.026Z,99787.17
2018-01-06T00:16:06.631Z,99798.98
2018-01-06T00:18:34.198Z,99800.89
2018-01-06T00:21:01.811Z,99810.59
2018-01-06T00:23:29.466Z,99821.19
2018-01-06T00:25:57.159Z,99828.02
2018-01-06T00:28:24.732Z,99818.84
2018-01-06T00:30:52.314Z,99829.81
2018-01-06T00:33:19.874Z,99841.16
2018-01-06T00:35:47.442Z,99838.20
2018-01-06T00:38:15.015Z,99835.34
2018-01-06T00:40:43.500Z,99832.86
2018-01-06T00:43:11.870Z,99829.09
2018-01-06T00:45:40.231Z,99832.45
2018-01-06T00:48:07.799Z,99835.53
2018-01-06T00:50:36.313Z,99839.04
2018-01-06T00:53:03.887Z,99837.55
2018-01-06T00:55:32.379Z,99838.05
2018-01-06T00:58:00.027Z,99844.49
2018-01-06T01:00:27.599Z,99849.53
2018-01-06T01:02:55.898Z,99850.03
2018-01-06T01:05:24.236Z,99839.97
2018-01-06T01:07:51.901Z,99847.44
2018-01-06T01:10:20.299Z,99861.84
2018-01-06T01:12:47.902Z,99850.19
2018-01-06T01:15:15.458Z,99860.44
2018-01-06T01:17:43.068Z,99863.08
2018-01-06T01:20:10.629Z,99862.98
2018-01-06T01:22:39.027Z,99852.64
2018-01-06T01:25:06.595Z,99867.07
2018-01-06T01:27:34.162Z,99878.09
2018-01-06T01:30:01.789Z,99873.61
2018-01-06T01:32:30.065Z,99879.33
2018-01-06T01:34:58.452Z,99879.73
2018-01-06T01:37:26.014Z,99878.03
2018-01-06T01:39:53.570Z,99871.32
2018-01-06T01:42:21.139Z,99882.91
2018-01-06T01:44:49.543Z,99885.08
2018-01-06T01:47:17.890Z,99884.62
2018-01-06T01:49:46.363Z,99882.41
2018-01-06T01:52:14.932Z,99883.40
2018-01-06T01:54:42.505Z,99884.77
2018-01-06T01:57:10.986Z,99876.16
2018-01-06T01:59:38.567Z,99874.86
2018-01-06T02:02:06.172Z,99873.75
2018-01-06T02:04:34.598Z,99872.14
2018-01-06T02:07:02.982Z,99871.58
2018-01-06T02:09:30.915Z,99872.25
2018-01-06T02:11:58.492Z,99882.64
2018-01-06T02:14:26.096Z,99884.67
2018-01-06T02:16:53.677Z,99891.67
2018-01-06T02:19:21.394Z,99900.45
2018-01-06T02:21:48.962Z,99900.22
2018-01-06T02:24:16.528Z,99904.35
2018-01-06T02:26:44.109Z,99910.72
2018-01-06T02:29:11.694Z,99911.34
2018-01-06T02:31:40.072Z,99908.16
2018-01-06T02:34:07.640Z,99901.05
2018-01-06T02:36:35.237Z,99907.87
2018-01-06T02:39:03.742Z,99903.09
2018-01-06T02:41:32.146Z,99911.11
2018-01-06T02:44:00.486Z,99904.91
2018-01-06T02:46:28.871Z,99895.98
2018-01-06T02:48:56.563Z,99901.27
2018-01-06T02:51:24.126Z,99903.19
2018-01-06T02:53:51.771Z,99907.26
2018-01-06T02:56:19.338Z,99914.27
2018-01-06T02:58:47.819Z,99911.69
2018-01-06T03:01:15.490Z,99918.36
2018-01-06T03:03:43.069Z,99916.67
2018-01-06T03:06:10.642Z,99922.31
2018-01-06T03:08:38.250Z,99922.23
2018-01-06T03:11:05.853Z,99927.96
2018-01-06T03:13:33.423Z,99932.61
2018-01-06T03:16:01.030Z,99927.70
2018-01-06T03:18:29.392Z,99933.52
2018-01-06T03:20:57.790Z,99937.73
2018-01-06T03:23:25.446Z,99938.84
2018-01-06T03:25:53.028Z,99944.25
2018-01-06T03:28:21.423Z,99950.70
2018-01-06T03:30:49.898Z,99954.74
2018-01-06T03:33:17.642Z,99959.00
2018-01-06T03:35:45.215Z,99956.16
2018-01-06T03:38:12.786Z,99960.34
2018-01-06T03:40:40.420Z,99962.01
2018-01-06T03:43:08.695Z,99959.49
2018-01-06T03:45:36.358Z,99963.11
2018-01-06T03:48:03.936Z,99965.65
2018-01-06T03:50:31.574Z,99979.93
2018-01-06T03:52:59.143Z,99986.73
2018-01-06T03:55:26.731Z,99994.59
2018-01-06T03:57:54.298Z,99987.59
2018-01-06T04:00:21.858Z,100000.13
2018-01-06T04:02:49.420Z,99997.34
2018-01-06T04:05:16.991Z,100000.80
2018-01-06T04:07:44.566Z,99997.95
2018-01-06T04:10:12.127Z,99999.34
2018-01-06T04:12:39.686Z,99995.44
2018-01-06T04:15:07.260Z,99996.72
2018-01-06T04:17:34.897Z,99993.42
2018-01-06T04:20:03.290Z,99994.63
2018-01-06T04:22:30.866Z,100001.55
2018-01-06T04:24:58.453Z,100008.35
2018-01-06T04:27:26.859Z,100003.72
2018-01-06T04:29:55.326Z,100004.04
2018-01-06T04:32:22.894Z,100009.44
2018-01-06T04:34:50.467Z,100010.41
2018-01-06T04:37:18.051Z,100022.94
2018-01-06T04:39:45.714Z,100025.22
2018-01-06T04:42:14.206Z,100021.61
2018-01-06T04:44:41.801Z,100021.81
2018-01-06T04:47:10.226Z,100020.37
2018-01-06T04:49:37.810Z,100027.89
2018-01-06T04:52:05.422Z,100033.05
2018-01-06T04:54:33.922Z,100031.34
2018-01-06T04:57:01.493Z,100032.46
2018-01-06T04:59:29.960Z,100026.83
2018-01-06T05:01:57.530Z,100026.83
2018-01-06T05:04:25.107Z,100022.35
2018-01-06T05:06:52.683Z,100037.80
2018-01-06T05:09:21.170Z,100033.94
2018-01-06T05:11:49.566Z,100036.39
2018-01-06T05:14:17.971Z,100045.46
2018-01-06T05:16:45.574Z,100039.02
2018-01-06T05:19:14.564Z,100050.08
2018-01-06T05:21:42.139Z,100039.41
2018-01-06T05:24:10.659Z,100041.19
2018-01-06T05:26:39.005Z,100047.03
2018-01-06T05:29:07.267Z,100045.84
2018-01-06T05:31:35.674Z,100045.66
2018-01-06T05:34:03.244Z,100047.44
2018-01-06T05:36:31.736Z,100064.14
2018-01-06T05:39:00.169Z,100066.42
2018-01-06T05:41:28.441Z,100072.01
2018-01-06T05:43:56.830Z,100070.95
2018-01-06T05:46:25.096Z,100075.04
2018-01-06T05:48:52.666Z,100082.67
2018-01-06T05:51:20.234Z,100084.03
2018-01-06T05:53:47.805Z,100095.06
2018-01-06T05:56:16.266Z,100095.23
2018-01-06T05:58:44.610Z,100095.78
2018-01-06T06:01:25.703Z,100098.05
2018-01-06T06:03:53.265Z,100097.91
2018-01-06T06:06:21.578Z,100098.98
2018-01-06T06:08:49.850Z,100105.16
2018-01-06T06:11:18.159Z,100100.89
2018-01-06T06:13:46.563Z,100115.59
2018-01-06T06:16:14.910Z,100116.41
2018-01-06T06:18:43.242Z,100124.94
2018-01-06T06:21:11.597Z,100122.80
2018-01-06T06:23:39.159Z,100128.07
2018-01-06T06:26:06.727Z,100125.97
2018-01-06T06:28:34.364Z,100124.64
2018-01-06T06:31:02.750Z,100127.45
2018-01-06T06:33:30.329Z,100124.57
2018-01-06T06:35:57.963Z,100127.64
2018-01-06T06:38:25.566Z,100129.48
2018-01-06T06:40:53.148Z,100130.41
2018-01-06T06:43:20.745Z,100130.89
2018-01-06T06:45:48.414Z,100134.59
2018-01-06T06:48:16.003Z,100135.66
2018-01-06T06:50:43.706Z,100137.58
2018-01-06T06:53:12.242Z,100136.70
2018-01-06T06:55:40.578Z,100133.91
2018-01-06T06:58:08.933Z,100143.03
2018-01-06T07:00:36.505Z,100142.25
2018-01-06T07:03:04.166Z,100149.68
2018-01-06T07:05:31.778Z,100148.84
2018-01-06T07:07:59.350Z,100158.59
2018-01-06T07:10:27.678Z,100165.26
2018-01-06T07:12:55.242Z,100165.55
2018-01-06T07:15:22.825Z,100165.77
2018-01-06T07:17:51.293Z,100171.27
2018-01-06T07:20:19.643Z,100169.58
2018-01-06T07:22:47.256Z,100173.61
2018-01-06T07:25:14.843Z,100177.52
2018-01-06T07:27:42.419Z,100181.51
2018-01-06T07:30:09.998Z,100196.03
2018-01-06T07:32:37.571Z,100199.00
2018-01-06T07:35:05.153Z,100208.70
2018-01-06T07:37:32.855Z,100207.28
2018-01-06T07:40:01.207Z,100224.23
2018-01-06T07:42:28.795Z,100223.59
2018-01-06T07:44:56.430Z,100224.17
2018-01-06T07:47:24.086Z,100233.19
2018-01-06T07:49:51.655Z,100239.58
2018-01-06T07:52:20.038Z,100241.95
2018-01-06T07:54:48.382Z,100260.75
2018-01-06T07:57:15.967Z,100257.53
2018-01-06T07:59:44.447Z,100274.28
2018-01-06T08:02:12.984Z,100272.39
2018-01-06T08:04:40.598Z,100282.70
2018-01-06T08:07:09.067Z,100285.89
2018-01-06T08:09:37.451Z,100293.02
2018-01-06T08:12:05.123Z,100299.42
2018-01-06T08:14:33.600Z,100297.23
2018-01-06T08:17:01.984Z,100296.80
2018-01-06T08:19:29.560Z,100289.68
2018-01-06T08:21:57.203Z,100290.58
2018-01-06T08:24:25.467Z,100302.40
2018-01-06T08:26:53.047Z,100308.56
2018-01-06T08:29:20.715Z,100314.09
2018-01-06T08:31:48.320Z,100319.86
2018-01-06T08:34:16.682Z,100315.73
2018-01-06T08:36:45.066Z,100310.23
2018-01-06T08:39:13.587Z,100308.22
2018-01-06T08:41:41.273Z,100309.61
2018-01-06T08:44:08.862Z,100312.55
2018-01-06T08:46:36.453Z,100317.23
2018-01-06T08:49:05.015Z,100318.56
2018-01-06T08:51:33.563Z,100322.48
2018-01-06T08:54:02.057Z,100328.72
2018-01-06T08:56:29.634Z,100330.61
2018-01-06T08:58:57.270Z,100335.23
2018-01-06T09:01:24.847Z,100337.19
2018-01-06T09:03:53.482Z,100335.72
2018-01-06T09:06:21.061Z,100343.69
2018-01-06T09:08:48.675Z,100348.06
2018-01-06T09:11:16.447Z,100348.95
2018-01-06T09:13:45.414Z,100357.70
2018-01-06T09:16:13.886Z,100358.59
2018-01-06T09:18:41.600Z,100362.55
2018-01-06T09:21:10.034Z,100366.26
2018-01-06T09:23:37.639Z,100367.44
2018-01-06T09:26:05.211Z,100363.78
2018-01-06T09:28:32.785Z,100366.57
2018-01-06T09:31:00.359Z,100366.63
2018-01-06T09:33:28.447Z,100362.13
2018-01-06T09:35:56.121Z,100368.87
2018-01-06T09:38:23.828Z,100374.69
2018-01-06T09:40:52.475Z,100370.75
2018-01-06T09:43:20.053Z,100365.05
2018-01-06T09:45:47.709Z,100370.22
2018-01-06T09:48:15.462Z,100380.33
2018-01-06T09:50:43.047Z,100379.31
2018-01-06T09:53:11.194Z,100379.76
2018-01-06T09:55:38.776Z,100377.41
2018-01-06T09:58:06.355Z,100377.81
2018-01-06T10:00:33.930Z,100380.19
2018-01-06T10:03:01.506Z,100377.42
2018-01-06T10:05:29.087Z,100377.80
2018-01-06T10:07:56.771Z,100383.75
2018-01-06T10:10:24.364Z,100380.66
2018-01-06T10:12:51.940Z,100383.42
2018-01-06T10:15:19.651Z,100387.09
2018-01-06T10:17:48.020Z,100378.95
2018-01-06T10:20:15.590Z,100389.86
2018-01-06T10:22:43.994Z,100398.53
2018-01-06T10:25:11.566Z,100401.59
2018-01-06T10:27:40.030Z,100405.54
2018-01-06T10:30:08.419Z,100407.89
2018-01-06T10:32:35.989Z,100406.09
2018-01-06T10:35:03.557Z,100401.60
2018-01-06T10:37:31.126Z,100401.65
2018-01-06T10:39:58.703Z,100396.93
2018-01-06T10:42:27.121Z,100392.84
2018-01-06T10:44:55.487Z,100399.55
2018-01-06T10:47:23.087Z,100405.72
2018-01-06T10:49:50.658Z,100413.33
2018-01-06T10:52:19.034Z,100406.33
2018-01-06T10:54:46.616Z,100405.60
2018-01-06T10:57:14.191Z,100404.95
2018-01-06T10:59:41.760Z,100400.67
2018-01-06T11:02:09.343Z,100400.89
2018-01-06T11:04:36.952Z,100408.25
2018-01-06T11:07:04.525Z,100401.54
2018-01-06T11:09:32.126Z,100409.31
2018-01-06T11:11:59.703Z,100413.95
2018-01-06T11:14:27.286Z,100414.30
2018-01-06T11:16:54.918Z,100414.60
2018-01-06T11:19:22.538Z,100410.35
2018-01-06T11:21:50.854Z,100412.23
2018-01-06T11:24:18.466Z,100414.72
2018-01-06T11:26:46.997Z,100418.31
2018-01-06T11:29:14.887Z,100429.95
2018-01-06T11:31:42.463Z,100431.92
2018-01-06T11:34:10.078Z,100429.53
2018-01-06T11:36:37.755Z,100436.20
2018-01-06T11:39:06.340Z,100440.00
2018-01-06T11:41:35.261Z,100434.33
2018-01-06T11:44:02.882Z,100444.91
2018-01-06T11:46:30.446Z,100448.73
2018-01-06T11:48:58.119Z,100450.42
2018-01-06T11:51:25.784Z,100460.94
2018-01-06T11:53:54.374Z,100456.05
2018-01-06T11:56:22.885Z,100457.75
2018-01-06T11:58:50.514Z,100450.19
2018-01-06T12:01:18.092Z,100455.98
2018-01-06T12:03:45.702Z,100447.75
2018-01-06T12:06:14.259Z,100442.80
2018-01-06T12:08:42.595Z,100443.55
2018-01-06T12:11:13.140Z,100445.38
2018-01-06T12:13:41.607Z,100452.33
2018-01-06T12:16:09.990Z,100451.16
2018-01-06T12:18:38.337Z,100444.36
2018-01-06T12:21:05.965Z,100434.08
2018-01-06T12:23:33.567Z,100435.52
2018-01-06T12:26:02.041Z,100441.03
2018-01-06T12:28:30.404Z,100447.21
2018-01-06T12:30:58.781Z,100448.90
2018-01-06T12:33:26.427Z,100447.55
2018-01-06T12:35:54.983Z,100444.98
2018-01-06T12:38:22.644Z,100436.03
2018-01-06T12:40:50.313Z,100445.16
2018-01-06T12:43:17.896Z,100443.46
2018-01-06T12:45:45.539Z,100449.91
2018-01-06T12:48:13.196Z,100451.42
2018-01-06T12:50:40.818Z,100453.72
2018-01-06T12:53:08.945Z,100468.47
2018-01-06T12:55:36.527Z,100473.23
2018-01-06T12:58:04.096Z,100475.97
2018-01-06T13:00:31.710Z,100472.82
2018-01-06T13:02:59.282Z,100470.13
2018-01-06T13:05:26.899Z,100472.33
2018-01-06T13:07:54.482Z,100479.62
2018-01-06T13:10:22.047Z,100480.45
2018-01-06T13:12:49.614Z,100478.63
2018-01-06T13:15:17.279Z,100473.08
2018-01-06T13:17:44.847Z,100479.60
2018-01-06T13:20:12.429Z,100484.06
2018-01-06T13:22:40.899Z,100487.72
2018-01-06T13:25:08.476Z,100477.91
2018-01-06T13:27:36.053Z,100488.59
2018-01-06T13:30:03.665Z,100496.33
2018-01-06T13:32:31.237Z,100499.36
2018-01-06T13:34:58.807Z,100495.39
2018-01-06T13:37:26.614Z,100491.09
2018-01-06T13:39:55.458Z,100500.20
2018-01-06T13:42:23.164Z,100506.67
2018-01-06T13:44:51.956Z,100512.03
2018-01-06T13:47:19.598Z,100511.69
2018-01-06T13:49:47.276Z,100510.23
2018-01-06T13:52:14.894Z,100514.44
2018-01-06T13:54:42.511Z,100517.43
2018-01-06T13:57:10.084Z,100519.00
2018-01-06T13:59:37.682Z,100521.52
2018-01-06T14:02:05.262Z,100520.11
2018-01-06T14:04:33.121Z,100525.12
2018-01-06T14:07:00.691Z,100529.61
2018-01-06T14:09:28.315Z,100533.18
2018-01-06T14:11:56.533Z,100530.84
2018-01-06T14:14:25.045Z,100541.00
2018-01-06T14:16:53.409Z,100549.58
2018-01-06T14:19:20.986Z,100550.61
2018-01-06T14:21:49.483Z,100552.45
2018-01-06T14:24:17.886Z,100554.64
2018-01-06T14:26:46.319Z,100569.35
2018-01-06T14:29:14.911Z,100562.22
2018-01-06T14:31:43.399Z,100573.19
2018-01-06T14:34:11.033Z,100585.23
2018-01-06T14:36:38.640Z,100584.87
2018-01-06T14:39:06.254Z,100594.00
2018-01-06T14:41:33.827Z,100594.58
2018-01-06T14:44:02.434Z,100593.72
2018-01-06T14:46:30.005Z,100590.24
2018-01-06T14:48:57.582Z,100595.02
2018-01-06T14:51:25.928Z,100602.34
2018-01-06T14:53:53.497Z,100603.65
2018-01-06T14:56:21.163Z,100598.98
2018-01-06T14:58:49.633Z,100599.52
2018-01-06T15:01:17.202Z,100602.44
2018-01-06T15:03:44.824Z,100595.93
2018-01-06T15:06:15.908Z,100600.73
2018-01-06T15:08:43.524Z,100610.58
2018-01-06T15:11:11.100Z,100599.36
2018-01-06T15:13:38.678Z,100606.59
2018-01-06T15:16:06.255Z,100607.28
2018-01-06T15:18:33.814Z,100612.82
2018-01-06T15:21:01.393Z,100624.40
2018-01-06T15:23:29.076Z,100618.70
2018-01-06T15:25:56.759Z,100626.30
2018-01-06T15:28:24.426Z,100635.80
2018-01-06T15:30:52.058Z,100644.02
2018-01-06T15:33:19.664Z,100640.59
2018-01-06T15:35:47.243Z,100646.53
2018-01-06T15:38:14.826Z,100656.37
2018-01-06T15:40:42.459Z,100650.66
2018-01-06T15:43:10.039Z,100657.99
2018-01-06T15:45:38.723Z,100666.08
2018-01-06T15:48:06.306Z,100669.45
2018-01-06T15:50:34.029Z,100666.16
2018-01-06T15:53:01.642Z,100674.18
2018-01-06T15:55:29.314Z,100665.97
2018-01-06T15:57:56.932Z,100675.12
2018-01-06T16:00:24.510Z,100678.23
2018-01-06T16:02:52.084Z,100684.72
2018-01-06T16:05:19.750Z,100686.41
2018-01-06T16:07:48.132Z,100692.94
2018-01-06T16:10:16.598Z,100695.95
2018-01-06T16:12:44.166Z,100699.44
2018-01-06T16:15:11.831Z,100704.11
2018-01-06T16:17:39.533Z,100704.28
2018-01-06T16:20:07.515Z,100703.95
2018-01-06T16:22:35.091Z,100708.40
2018-01-06T16:25:02.671Z,100712.84
2018-01-06T16:27:30.250Z,100713.02
2018-01-06T16:29:57.876Z,100717.09
2018-01-06T16:32:25.460Z,100722.96
2018-01-06T16:34:53.022Z,100722.22
2018-01-06T16:37:21.530Z,100741.51
2018-01-06T16:42:22.906Z,100748.42
2018-01-06T16:44:51.366Z,100756.94
2018-01-06T16:47:18.982Z,100756.81
2018-01-06T16:49:46.568Z,100759.53
2018-01-06T16:52:14.167Z,100762.47
2018-01-06T16:54:42.667Z,100766.95
2018-01-06T16:57:11.091Z,100768.58
2018-01-06T16:59:39.498Z,100778.60
2018-01-06T17:02:07.104Z,100777.33
2018-01-06T17:04:35.744Z,100778.54
2018-01-06T17:07:04.172Z,100770.16
2018-01-06T17:09:31.787Z,100764.95
2018-01-06T17:11:59.373Z,100762.41
2018-01-06T17:14:27.924Z,100751.16
2018-01-06T17:16:56.595Z,100753.61
2018-01-06T17:19:25.550Z,100769.63
2018-01-06T17:21:53.139Z,100776.42
2018-01-06T17:24:20.719Z,100781.52
2018-01-06T17:26:48.294Z,100786.44
2018-01-06T17:29:16.282Z,100792.11
2018-01-06T17:31:44.658Z,100796.97
2018-01-06T17:34:12.872Z,100804.72
2018-01-06T17:36:40.460Z,100812.28
2018-01-06T17:39:08.866Z,100802.45
2018-01-06T17:41:37.466Z,100820.11
2018-01-06T17:44:06.622Z,100828.53
2018-01-06T17:46:35.155Z,100833.16
2018-01-06T17:49:02.820Z,100832.84
2018-01-06T17:51:30.531Z,100832.39
2018-01-06T17:53:58.108Z,100836.63
2018-01-06T17:56:25.695Z,100842.32
2018-01-06T17:58:53.275Z,100845.77
2018-01-06T18:01:20.857Z,100845.22
2018-01-06T18:03:48.434Z,100852.08
2018-01-06T18:06:16.023Z,100857.14
2018-01-06T18:08:44.387Z,100856.24
2018-01-06T18:11:12.024Z,100858.30
2018-01-06T18:13:40.614Z,100864.64
2018-01-06T18:16:08.206Z,100865.52
2018-01-06T18:18:36.680Z,100872.78
2018-01-06T18:21:04.255Z,100868.30
2018-01-06T18:23:31.914Z,100870.80
2018-01-06T18:25:59.496Z,100873.68
2018-01-06T18:28:27.178Z,100881.34
2018-01-06T18:30:54.791Z,100881.46
2018-01-06T18:33:23.182Z,100883.02
2018-01-06T18:35:50.820Z,100890.82
2018-01-06T18:38:18.413Z,100901.44
2018-01-06T18:40:46.074Z,100905.82
2018-01-06T18:43:14.559Z,100901.64
2018-01-06T18:45:42.220Z,100917.47
2018-01-06T18:48:09.803Z,100911.77
2018-01-06T18:50:37.475Z,100907.44
2018-01-06T18:53:05.174Z,100915.47
2018-01-06T18:55:32.750Z,100907.87
2018-01-06T18:58:00.382Z,100912.76
2018-01-06T19:00:27.968Z,100919.36
2018-01-06T19:02:55.651Z,100922.73
2018-01-06T19:05:23.242Z,100928.03
2018-01-06T19:07:50.831Z,100933.26
2018-01-06T19:10:18.432Z,100944.41
2018-01-06T19:12:46.867Z,100939.70
2018-01-06T19:15:14.486Z,100937.43
2018-01-06T19:17:42.147Z,100948.97
2018-01-06T19:20:09.726Z,100967.95
2018-01-06T19:22:37.315Z,100969.80
2018-01-06T19:25:04.928Z,100965.04
2018-01-06T19:27:32.594Z,100966.57
2018-01-06T19:30:00.999Z,100976.16
2018-01-06T19:32:28.581Z,100988.38
2018-01-06T19:34:56.166Z,100992.97
2018-01-06T19:37:23.739Z,100995.77
2018-01-06T19:39:51.314Z,101002.66
2018-01-06T19:42:18.906Z,100995.59
2018-01-06T19:44:46.485Z,101007.22
2018-01-06T19:47:14.098Z,101010.68
2018-01-06T19:49:41.684Z,101016.87
2018-01-06T19:52:09.323Z,101022.21
2018-01-06T19:54:36.899Z,101023.45
2018-01-06T19:57:04.474Z,101031.10
2018-01-06T19:59:32.056Z,101025.45
2018-01-06T20:01:59.635Z,101030.03
2018-01-06T20:04:27.223Z,101039.72
2018-01-06T20:06:54.803Z,101048.98
2018-01-06T20:09:22.964Z,101059.03
2018-01-06T20:11:50.543Z,101051.01
2018-01-06T20:14:18.394Z,101054.45
2018-01-06T20:16:46.786Z,101055.41
2018-01-06T20:19:15.872Z,101074.94
2018-01-06T20:21:43.449Z,101074.53
2018-01-06T20:24:11.083Z,101075.24
2018-01-06T20:26:38.752Z,101075.86
2018-01-06T20:29:06.336Z,101071.86
2018-01-06T20:31:33.925Z,101073.48
2018-01-06T20:34:01.503Z,101082.52
2018-01-06T20:36:30.120Z,101083.23
2018-01-06T20:38:58.590Z,101081.42
2018-01-06T20:41:26.231Z,101078.73
2018-01-06T20:43:53.865Z,101082.22
2018-01-06T20:46:21.448Z,101090.39
2018-01-06T20:48:49.088Z,101100.80
2018-01-06T20:51:16.711Z,101100.41
2018-01-06T20:53:44.292Z,101113.86
2018-01-06T20:56:11.992Z,101121.67
2018-01-06T20:58:39.571Z,101131.69
2018-01-06T21:01:07.151Z,101136.77
2018-01-06T21:03:34.831Z,101139.34
2018-01-06T21:06:02.455Z,101145.80
2018-01-06T21:08:30.047Z,101151.42
2018-01-06T21:10:57.634Z,101159.05
2018-01-06T21:13:25.219Z,101158.08
2018-01-06T21:15:52.794Z,101158.28
2018-01-06T21:18:20.407Z,101159.48
2018-01-06T21:20:48.109Z,101167.09
2018-01-06T21:23:15.721Z,101163.08
2018-01-06T21:25:43.340Z,101162.58
2018-01-06T21:28:10.919Z,101166.52
2018-01-06T21:30:38.503Z,101160.69
2018-01-06T21:33:06.083Z,101168.86
2018-01-06T21:35:33.727Z,101172.55
2018-01-06T21:38:01.310Z,101178.98
2018-01-06T21:40:28.914Z,101183.34
2018-01-06T21:42:56.510Z,101182.89
2018-01-06T21:45:24.918Z,101178.56
2018-01-06T21:47:52.530Z,101184.64
2018-01-06T21:50:20.106Z,101189.36
2018-01-06T21:52:47.766Z,101203.14
2018-01-06T21:55:16.357Z,101210.84
2018-01-06T21:57:44.017Z,101208.19
2018-01-06T22:00:11.690Z,101209.84
2018-01-06T22:02:39.314Z,101206.79
2018-01-06T22:05:06.986Z,101206.28
2018-01-06T22:07:34.673Z,101219.83
2018-01-06T22:10:02.443Z,101224.59
2018-01-06T22:12:30.117Z,101232.89
2018-01-06T22:14:57.730Z,101238.91
2018-01-06T22:17:25.319Z,101245.66
2018-01-06T22:19:52.910Z,101245.58
2018-01-06T22:22:20.487Z,101250.42
2018-01-06T22:24:48.067Z,101245.64
2018-01-06T22:27:15.679Z,101253.98
2018-01-06T22:29:43.343Z,101263.89
2018-01-06T22:32:10.945Z,101270.47
2018-01-06T22:34:38.522Z,101261.77
2018-01-06T22:37:06.147Z,101263.14
2018-01-06T22:39:34.533Z,101265.59
2018-01-06T22:42:03.040Z,101268.63
2018-01-06T22:44:30.614Z,101281.67
2018-01-06T22:46:58.194Z,101292.49
2018-01-06T22:49:25.836Z,101297.73
2018-01-06T22:51:53.414Z,101302.67
2018-01-06T22:54:21.092Z,101304.23
2018-01-06T22:56:48.754Z,101309.41
2018-01-06T22:59:16.435Z,101314.39
2018-01-06T23:01:44.011Z,101314.25
2018-01-06T23:04:11.640Z,101305.33
2018-01-06T23:06:39.303Z,101305.61
2018-01-06T23:09:07.758Z,101310.02
2018-01-06T23:11:35.330Z,101311.66
2018-01-06T23:14:02.969Z,101320.05
2018-01-06T23:16:30.551Z,101322.11
2018-01-06T23:18:58.235Z,101330.27
2018-01-06T23:21:25.896Z,101322.08
2018-01-06T23:23:53.554Z,101329.78
2018-01-06T23:26:21.188Z,101333.31
2018-01-06T23:28:48.864Z,101332.98
2018-01-06T23:31:16.515Z,101342.39
2018-01-06T23:33:44.099Z,101335.06
2018-01-06T23:36:11.719Z,101336.59
2018-01-06T23:38:39.306Z,101339.89
2018-01-06T23:41:06.890Z,101345.01
2018-01-06T23:43:34.575Z,101344.65
2018-01-06T23:46:02.930Z,101337.13
2018-01-06T23:48:31.310Z,101349.70
2018-01-06T23:50:59.523Z,101356.89
2018-01-06T23:53:27.098Z,101357.43
2018-01-06T23:55:54.670Z,101358.04
2018-01-06T23:58:22.242Z,101368.58
